Seafrance Rodin — FOBQ — position and weather

sailwx.info

Track history (hours):
 
Tides and Currents Weather Stations Pressure Air Temp Water Temp Dewpoint Dewpoint Depression Visibility Wind Speed Wind Dir Waves Ship Positions

Seafrance Rodin

Operator: SeaFrance

Last reported at 2017-Jun-23 20:30 UTC. Time now 2017-Jun-23 20:29 UTC.
Position N 50°58' E 001°51'.

Length 185 m; draft 6 m.

MMSI: 227022800.

Date/timePositionNaut miles runAvg speedWind from/ knotsBaromVisibWave heightAir tempDewpointWater temp
2017-Jun-23 20:30N 50°58' E 001°51'4 8.8
2017-Jun-23 20:01N 50°58' E 001°44'815.9
2017-Jun-23 19:31N 51°01' E 001°33'917.3
2017-Jun-23 19:00N 51°07' E 001°22'1 2.7
2017-Jun-23 18:30N 51°07' E 001°20'0 0.4
2017-Jun-23 17:59N 51°07' E 001°20'715.0
2017-Jun-23 17:31N 51°05' E 001°31'918.7
2017-Jun-23 17:01N 50°59' E 001°43'510.9
2017-Jun-23 16:30N 50°58' E 001°51'0 0.0
2017-Jun-23 16:00N 50°58' E 001°51'2 4.1
2017-Jun-23 15:30N 50°58' E 001°48'815.1
2017-Jun-23 15:00N 51°00' E 001°36'1312.6
2017-Jun-23 14:00N 51°07' E 001°20'0 0.0
2017-Jun-23 13:30N 51°07' E 001°20'3 6.8
2017-Jun-23 13:01N 51°07' E 001°25'918.4
2017-Jun-23 12:31N 51°02' E 001°38'816.7
2017-Jun-23 12:00N 50°58' E 001°50'1 1.9
2017-Jun-23 11:30N 50°58' E 001°51'0 0.3
2017-Jun-23 11:00N 50°58' E 001°51'816.2
2017-Jun-23 10:30N 50°60' E 001°38'917.0
2017-Jun-23 10:00N 51°04' E 001°27'510.1
2017-Jun-23 09:29N 51°07' E 001°20'0 0.0
2017-Jun-23 08:58N 51°07' E 001°20'4 8.2
2017-Jun-23 08:30N 51°07' E 001°26'918.2
2017-Jun-23 08:01N 51°02' E 001°39'815.8
2017-Jun-23 07:30N 50°58' E 001°50'1 2.2
2017-Jun-23 07:00N 50°58' E 001°51'0 0.0
2017-Jun-23 06:31N 50°58' E 001°51'4 7.1
2017-Jun-23 06:00N 50°58' E 001°46'815.9
2017-Jun-23 05:30N 51°01' E 001°34'917.3
2017-Jun-23 05:00N 51°06' E 001°23'2 4.6
2017-Jun-23 04:30N 51°07' E 001°20'0 0.0
2017-Jun-23 04:00N 51°07' E 001°20'4 8.2
2017-Jun-23 03:30N 51°06' E 001°26'917.0
2017-Jun-23 03:00N 51°01' E 001°37'815.6
2017-Jun-23 02:30N 50°58' E 001°49'2 3.0
2017-Jun-23 02:00N 50°58' E 001°51'0 0.0
2017-Jun-23 01:30N 50°58' E 001°51'1 2.6
2017-Jun-23 01:01N 50°58' E 001°49'816.4
2017-Jun-23 00:30N 51°00' E 001°37'816.7
2017-Jun-23 00:00N 51°05' E 001°26'4 8.4
2017-Jun-22 23:30N 51°07' E 001°20'0 0.0
2017-Jun-22 23:00N 51°07' E 001°20'4 9.1
2017-Jun-22 22:31N 51°07' E 001°27'917.1
2017-Jun-22 22:00N 51°02' E 001°38'714.6
2017-Jun-22 21:30N 50°58' E 001°48'2 3.5
2017-Jun-22 21:00N 50°58' E 001°51'0 0.0
2017-Jun-22 20:31N 50°58' E 001°51'4 7.4
2017-Jun-22 20:00N 50°58' E 001°45'816.3
2017-Jun-22 19:30N 51°01' E 001°33'816.5
2017-Jun-22 19:00N 51°06' E 001°23'2 4.7
2017-Jun-22 18:30N 51°07' E 001°20'0 0.1
2017-Jun-22 18:00N 51°07' E 001°20'815.2
2017-Jun-22 17:30N 51°04' E 001°31'1019.3
2017-Jun-22 17:00N 50°59' E 001°44'5 9.5
2017-Jun-22 16:30N 50°58' E 001°51'0 0.0
2017-Jun-22 16:00N 50°58' E 001°51'2 4.7
2017-Jun-22 15:30N 50°58' E 001°47'815.8
2017-Jun-22 15:01N 51°01' E 001°36'917.5
2017-Jun-22 14:31N 51°06' E 001°24'3 3.1
2017-Jun-22 13:30N 51°07' E 001°20'4 9.0
2017-Jun-22 13:01N 51°07' E 001°27'1020.0
2017-Jun-22 12:30N 51°01' E 001°40'714.7
2017-Jun-22 12:00N 50°58' E 001°51'0 0.1
2017-Jun-22 11:30N 50°58' E 001°51'1 1.0
2017-Jun-22 11:00N 50°58' E 001°50'918.2
2017-Jun-22 10:30N 50°59' E 001°36'918.4
2017-Jun-22 10:00N 51°05' E 001°25'4 7.6
2017-Jun-22 09:31N 51°07' E 001°20'0 0.0
2017-Jun-22 08:58N 51°07' E 001°20'4 7.9
2017-Jun-22 08:30N 51°06' E 001°26'918.7
2017-Jun-22 08:00N 51°02' E 001°39'815.4
2017-Jun-22 07:30N 50°58' E 001°50'1 1.8
2017-Jun-22 07:00N 50°58' E 001°51'0 0.0
2017-Jun-22 06:30N 50°58' E 001°51'3 6.3
2017-Jun-22 06:00N 50°58' E 001°46'816.0
2017-Jun-22 05:30N 51°01' E 001°35'917.1
2017-Jun-22 05:00N 51°06' E 001°23'3 5.0
2017-Jun-22 04:30N 51°07' E 001°20'0 0.0
2017-Jun-22 04:00N 51°07' E 001°20'4 8.0
2017-Jun-22 03:30N 51°06' E 001°26'816.7
2017-Jun-22 03:01N 51°02' E 001°38'815.4
2017-Jun-22 02:30N 50°58' E 001°48'2 3.5
2017-Jun-22 02:00N 50°58' E 001°51'0 0.0
2017-Jun-22 01:30N 50°58' E 001°51'3 5.6
2017-Jun-22 01:01N 50°58' E 001°47'816.0
2017-Jun-22 00:30N 50°59' E 001°34'815.7
2017-Jun-22 00:00N 51°05' E 001°27'5 9.5
2017-Jun-21 23:30N 51°07' E 001°20'0 0.0
2017-Jun-21 23:00N 51°07' E 001°20'4 7.4
2017-Jun-21 22:30N 51°06' E 001°26'917.2
2017-Jun-21 22:00N 51°02' E 001°37'815.1
2017-Jun-21 21:30N 50°58' E 001°48'2 4.1
2017-Jun-21 21:00N 50°58' E 001°51'0 0.0
2017-Jun-21 20:30N 50°58' E 001°51'510.4
2017-Jun-21 20:00N 50°58' E 001°43'917.0
2017-Jun-21 19:30N 51°02' E 001°31'816.4
2017-Jun-21 19:01N 51°07' E 001°21'1 1.1
2017-Jun-21 18:30N 51°07' E 001°20'0 0.3
2017-Jun-21 18:00N 51°07' E 001°20'917.1
2017-Jun-21 17:31N 51°04' E 001°33'1019.6
2017-Jun-21 17:01N 50°58' E 001°45'4 7.6
2017-Jun-21 16:30N 50°58' E 001°51'0 0.0
2017-Jun-21 16:00N 50°58' E 001°51'2 4.8
2017-Jun-21 15:31N 50°58' E 001°47'816.4
2017-Jun-21 15:00N 51°01' E 001°35'918.2
2017-Jun-21 14:31N 51°06' E 001°23'3 2.5
2017-Jun-21 13:30N 51°07' E 001°20'4 8.6
2017-Jun-21 13:00N 51°06' E 001°27'918.8
2017-Jun-21 12:30N 51°01' E 001°39'816.0
2017-Jun-21 12:00N 50°58' E 001°51'0 0.5
2017-Jun-21 11:30N 50°58' E 001°51'0 0.7
2017-Jun-21 11:01N 50°58' E 001°51'816.3
2017-Jun-21 10:31N 50°59' E 001°38'917.3
2017-Jun-21 10:01N 51°05' E 001°27'510.1
2017-Jun-21 09:30N 51°07' E 001°20'0 0.0
2017-Jun-21 09:00N 51°07' E 001°20'4 7.5
2017-Jun-21 08:31N 51°07' E 001°26'917.3
2017-Jun-21 08:00N 51°02' E 001°37'816.5
2017-Jun-21 07:30N 50°58' E 001°49'2 3.0
2017-Jun-21 07:00N 50°58' E 001°51'0 0.0
2017-Jun-21 06:30N 50°58' E 001°51'4 7.1
2017-Jun-21 06:00N 50°58' E 001°46'917.2
2017-Jun-21 05:31N 51°02' E 001°33'917.3
2017-Jun-21 05:00N 51°07' E 001°22'1 3.0
2017-Jun-21 04:31N 51°07' E 001°20'0 0.0
2017-Jun-21 04:00N 51°07' E 001°20'4 7.4
2017-Jun-21 03:30N 51°06' E 001°25'816.5
2017-Jun-21 03:00N 51°01' E 001°37'815.7
2017-Jun-21 02:30N 50°58' E 001°48'2 4.1
2017-Jun-21 02:00N 50°58' E 001°51'0 0.0
2017-Jun-21 01:30N 50°58' E 001°51'2 3.5
2017-Jun-21 01:00N 50°58' E 001°48'714.0
2017-Jun-21 00:30N 50°59' E 001°37'917.8
2017-Jun-21 00:01N 51°03' E 001°25'510.1
2017-Jun-20 23:30N 51°07' E 001°20'0 0.0
2017-Jun-20 23:00N 51°07' E 001°20'2 4.6
2017-Jun-20 22:31N 51°07' E 001°24'816.7
2017-Jun-20 22:01N 51°03' E 001°35'816.4
2017-Jun-20 21:31N 50°58' E 001°46'3 6.4
2017-Jun-20 21:00N 50°58' E 001°51'0 0.0
2017-Jun-20 20:30N 50°58' E 001°51'5 9.1
2017-Jun-20 20:00N 50°58' E 001°44'917.2
2017-Jun-20 19:31N 51°02' E 001°32'916.6
2017-Jun-20 18:59N 51°07' E 001°21'1 1.0
2017-Jun-20 18:28N 51°07' E 001°20'0 0.2
2017-Jun-20 18:00N 51°07' E 001°20'715.0
2017-Jun-20 17:31N 51°04' E 001°31'1019.3
2017-Jun-20 17:01N 50°59' E 001°44'5 9.6
2017-Jun-20 16:30N 50°58' E 001°51'0 0.0
2017-Jun-20 16:00N 50°58' E 001°51'3 5.2
2017-Jun-20 15:31N 50°58' E 001°47'816.9
2017-Jun-20 15:01N 51°01' E 001°34'918.4
2017-Jun-20 14:31N 51°06' E 001°22'2 1.9
2017-Jun-20 13:30N 51°07' E 001°20'4 7.9
2017-Jun-20 13:00N 51°06' E 001°26'918.0
2017-Jun-20 12:30N 51°01' E 001°38'816.8
2017-Jun-20 12:00N 50°58' E 001°51'0 0.9
2017-Jun-20 11:30N 50°58' E 001°51'0 0.7
2017-Jun-20 11:00N 50°58' E 001°51'917.4
2017-Jun-20 10:30N 50°59' E 001°37'1019.7
2017-Jun-20 10:00N 51°05' E 001°25'4 6.9
2017-Jun-20 09:30N 51°07' E 001°20'0 0.0
2017-Jun-20 09:00N 51°07' E 001°20'4 8.4
2017-Jun-20 08:30N 51°07' E 001°27'918.6
2017-Jun-20 08:00N 51°00' E 001°37'816.2
2017-Jun-20 07:30N 50°58' E 001°50'1 1.5
2017-Jun-20 07:00N 50°58' E 001°51'0 0.0
2017-Jun-20 06:30N 50°58' E 001°51'3 5.1
2017-Jun-20 06:00N 50°58' E 001°47'816.7
2017-Jun-20 05:30N 51°01' E 001°35'816.6
2017-Jun-20 05:01N 51°06' E 001°24'3 5.8
2017-Jun-20 04:30N 51°07' E 001°20'0 0.0
2017-Jun-20 04:00N 51°07' E 001°20'3 5.9
2017-Jun-20 03:30N 51°07' E 001°25'816.6
2017-Jun-20 03:00N 51°03' E 001°36'816.8
2017-Jun-20 02:30N 50°58' E 001°47'2 5.0
2017-Jun-20 02:00N 50°58' E 001°51'0 0.0
2017-Jun-20 01:30N 50°58' E 001°51'2 3.3
2017-Jun-20 01:00N 50°58' E 001°49'714.5
2017-Jun-20 00:31N 51°01' E 001°38'816.5
2017-Jun-20 00:00N 51°05' E 001°26'5 8.9
2017-Jun-19 23:29N 51°07' E 001°20'0 0.0
2017-Jun-19 23:00N 51°07' E 001°20'2 3.3
2017-Jun-19 22:31N 51°07' E 001°23'918.6
2017-Jun-19 22:01N 51°02' E 001°36'917.7
2017-Jun-19 21:31N 50°58' E 001°48'2 4.1
2017-Jun-19 21:00N 50°58' E 001°51'0 0.0
2017-Jun-19 20:30N 50°58' E 001°51'510.6
2017-Jun-19 20:00N 50°58' E 001°43'918.9
2017-Jun-19 19:31N 51°03' E 001°30'815.5
2017-Jun-19 19:00N 51°07' E 001°20'0 0.0
2017-Jun-19 18:30N 51°07' E 001°20'1 1.9
2017-Jun-19 18:00N 51°07' E 001°22'918.4
2017-Jun-19 17:31N 51°03' E 001°34'1020.4
2017-Jun-19 17:01N 50°58' E 001°49'2 3.1
2017-Jun-19 16:30N 50°58' E 001°51'0 0.0
2017-Jun-19 16:00N 50°58' E 001°51'1 1.6
2017-Jun-19 15:31N 50°58' E 001°50'917.6
2017-Jun-19 15:00N 50°60' E 001°36'918.3
2017-Jun-19 14:30N 51°05' E 001°24'4 3.5
2017-Jun-19 13:30N 51°07' E 001°20'5 9.6
2017-Jun-19 13:01N 51°06' E 001°27'1020.0
2017-Jun-19 12:30N 50°60' E 001°40'714.3
2017-Jun-19 12:00N 50°58' E 001°51'0 0.0
2017-Jun-19 11:30N 50°58' E 001°51'0 0.4
2017-Jun-19 11:00N 50°58' E 001°51'815.1
2017-Jun-19 10:31N 50°59' E 001°39'917.9
2017-Jun-19 10:00N 51°04' E 001°27'611.4
2017-Jun-19 09:31N 51°07' E 001°20'0 0.0
2017-Jun-19 09:00N 51°07' E 001°20'3 6.7
2017-Jun-19 08:31N 51°06' E 001°25'918.7
2017-Jun-19 08:01N 51°01' E 001°38'816.2
2017-Jun-19 07:30N 50°58' E 001°50'1 1.9
2017-Jun-19 07:01N 50°58' E 001°51'0 0.0
2017-Jun-19 06:31N 50°58' E 001°51'2 4.9
2017-Jun-19 06:00N 50°58' E 001°47'917.5
2017-Jun-19 05:30N 50°59' E 001°34'816.1
2017-Jun-19 05:00N 51°05' E 001°24'4 7.2
2017-Jun-19 04:30N 51°07' E 001°20'0 0.0
2017-Jun-19 04:00N 51°07' E 001°20'3 7.0
2017-Jun-19 03:30N 51°06' E 001°25'816.9
2017-Jun-19 03:00N 51°02' E 001°37'816.5
2017-Jun-19 02:30N 50°58' E 001°49'2 3.3
2017-Jun-19 02:00N 50°58' E 001°51'0 0.0
2017-Jun-19 01:30N 50°58' E 001°51'4 8.3
2017-Jun-19 01:00N 50°58' E 001°45'815.4
2017-Jun-19 00:30N 50°57' E 001°32'816.4
2017-Jun-19 00:00N 51°05' E 001°26'5 9.2
2017-Jun-18 23:30N 51°07' E 001°20'0 0.0
2017-Jun-18 23:00N 51°07' E 001°20'1 2.5
2017-Jun-18 22:30N 51°07' E 001°22'816.7
2017-Jun-18 22:01N 51°03' E 001°34'917.0
2017-Jun-18 21:30N 50°58' E 001°45'4 8.2
2017-Jun-18 21:00N 50°58' E 001°51'0 0.0
2017-Jun-18 20:30N 50°58' E 001°51'3 6.2
2017-Jun-18 20:00N 50°58' E 001°46'917.2
2017-Jun-18 19:30N 51°01' E 001°34'917.7
2017-Jun-18 19:00N 51°06' E 001°22'2 3.5
2017-Jun-18 18:30N 51°07' E 001°20'0 0.4
2017-Jun-18 17:59N 51°07' E 001°20'715.0
2017-Jun-18 17:31N 51°05' E 001°31'816.8
2017-Jun-18 17:00N 50°60' E 001°42'612.3
2017-Jun-18 16:30N 50°58' E 001°51'0 0.0
2017-Jun-18 16:01N 50°58' E 001°51'1 1.2
2017-Jun-18 15:30N 50°58' E 001°50'714.7
2017-Jun-18 15:01N 50°60' E 001°39'1414.1
2017-Jun-18 14:00N 51°07' E 001°20'0 0.0
2017-Jun-18 13:30N 51°07' E 001°20'5 9.2
2017-Jun-18 13:00N 51°06' E 001°27'1019.8
2017-Jun-18 12:30N 51°00' E 001°40'714.3
2017-Jun-18 12:00N 50°58' E 001°51'0 0.1
2017-Jun-18 11:31N 50°58' E 001°51'0 0.0
2017-Jun-18 11:00N 50°58' E 001°51'0 0.0
2017-Jun-18 10:30N 50°58' E 001°51'0 0.0
2017-Jun-18 10:00N 50°58' E 001°51'0 0.0
2017-Jun-18 09:30N 50°58' E 001°51'0 0.2
2017-Jun-18 09:01N 50°58' E 001°51'0 0.0
2017-Jun-18 08:31N 50°58' E 001°51'0 0.0
2017-Jun-18 08:01N 50°58' E 001°51'0 0.0
2017-Jun-18 07:31N 50°58' E 001°51'0 0.0
2017-Jun-18 07:01N 50°58' E 001°51'0 0.0
2017-Jun-18 06:31N 50°58' E 001°51'0 0.0
2017-Jun-18 06:00N 50°58' E 001°51'0 0.2
2017-Jun-18 05:31N 50°58' E 001°51'0 0.0
2017-Jun-18 05:01N 50°58' E 001°51'0 0.0
2017-Jun-18 04:31N 50°58' E 001°51'0 0.0
2017-Jun-18 04:01N 50°58' E 001°51'0 0.0
2017-Jun-18 03:30N 50°58' E 001°51'0 0.0
2017-Jun-18 03:01N 50°58' E 001°51'0 0.0
2017-Jun-18 02:31N 50°58' E 001°51'0 0.0
2017-Jun-18 02:00N 50°58' E 001°51'0 0.0
2017-Jun-18 01:31N 50°58' E 001°51'2 4.3
2017-Jun-18 01:01N 50°58' E 001°48'816.7
2017-Jun-18 00:31N 51°00' E 001°35'918.3
2017-Jun-18 00:01N 51°06' E 001°23'2 3.6
2017-Jun-17 23:21N 51°08' E 001°20'0 0.0
2017-Jun-17 23:00N 51°08' E 001°20'1 2.2
2017-Jun-17 22:30N 51°07' E 001°22'917.1
2017-Jun-17 22:01N 51°03' E 001°34'917.7
2017-Jun-17 21:30N 50°58' E 001°45'3 7.0
2017-Jun-17 21:00N 50°58' E 001°51'0 0.0
2017-Jun-17 20:30N 50°58' E 001°51'3 6.0
2017-Jun-17 20:00N 50°58' E 001°46'816.6
2017-Jun-17 19:30N 51°01' E 001°34'917.5
2017-Jun-17 19:00N 51°06' E 001°23'2 4.2
2017-Jun-17 18:31N 51°07' E 001°20'0 0.3
2017-Jun-17 17:58N 51°07' E 001°20'816.4
2017-Jun-17 17:31N 51°05' E 001°32'917.9
2017-Jun-17 17:00N 50°59' E 001°43'510.5
2017-Jun-17 16:30N 50°58' E 001°51'0 0.0
2017-Jun-17 16:00N 50°58' E 001°51'2 3.6
2017-Jun-17 15:31N 50°58' E 001°48'815.9
2017-Jun-17 15:01N 51°01' E 001°36'816.6
2017-Jun-17 14:31N 51°05' E 001°26'4 4.0
2017-Jun-17 13:31N 51°07' E 001°20'5 9.0
2017-Jun-17 13:01N 51°06' E 001°27'1717.1
2017-Jun-17 12:01N 50°58' E 001°51'0 0.1
2017-Jun-17 11:30N 50°58' E 001°51'1 2.6
2017-Jun-17 11:00N 50°58' E 001°49'917.0
2017-Jun-17 10:30N 51°00' E 001°36'1019.2
2017-Jun-17 10:00N 51°06' E 001°24'3 5.5
2017-Jun-17 09:30N 51°07' E 001°20'0 0.0
2017-Jun-17 09:00N 51°07' E 001°20'4 7.6
2017-Jun-17 08:31N 51°06' E 001°26'917.8
2017-Jun-17 08:01N 51°02' E 001°38'816.2
2017-Jun-17 07:31N 50°58' E 001°50'1 1.9
2017-Jun-17 07:01N 50°58' E 001°51'0 0.0
2017-Jun-17 06:30N 50°58' E 001°51'1 2.7
2017-Jun-17 06:01N 50°58' E 001°49'816.7
2017-Jun-17 05:30N 51°00' E 001°36'917.3
2017-Jun-17 05:00N 51°05' E 001°25'4 7.0
2017-Jun-17 04:29N 51°07' E 001°20'0 0.0
2017-Jun-17 04:00N 51°07' E 001°20'3 6.6
2017-Jun-17 03:30N 51°07' E 001°25'816.4
2017-Jun-17 03:00N 51°02' E 001°36'816.0
2017-Jun-17 02:30N 50°58' E 001°47'2 5.0
2017-Jun-17 02:01N 50°58' E 001°51'0 0.0
2017-Jun-17 01:30N 50°58' E 001°51'2 4.4
2017-Jun-17 01:00N 50°58' E 001°48'917.5
2017-Jun-17 00:30N 51°01' E 001°34'918.5
2017-Jun-17 00:00N 51°07' E 001°23'2 3.9
2017-Jun-16 23:30N 51°07' E 001°20'0 0.0
2017-Jun-16 23:00N 51°07' E 001°20'2 3.0
2017-Jun-16 22:31N 51°07' E 001°23'917.4
2017-Jun-16 22:01N 51°05' E 001°36'815.7
2017-Jun-16 21:31N 50°59' E 001°44'5 9.4
2017-Jun-16 21:00N 50°58' E 001°51'0 0.0
2017-Jun-16 20:30N 50°58' E 001°51'4 8.6
2017-Jun-16 20:01N 50°58' E 001°44'918.7
2017-Jun-16 19:30N 51°02' E 001°31'916.2
2017-Jun-16 18:58N 51°07' E 001°20'0 0.1
2017-Jun-16 18:30N 51°07' E 001°20'0 0.0
2017-Jun-16 18:00N 51°07' E 001°20'5 9.9
2017-Jun-16 17:31N 51°06' E 001°28'917.8
2017-Jun-16 17:00N 51°01' E 001°40'815.3
2017-Jun-16 16:30N 50°58' E 001°51'0 0.5
2017-Jun-16 16:00N 50°58' E 001°51'1 1.9
2017-Jun-16 15:30N 50°58' E 001°50'816.5
2017-Jun-16 15:00N 50°60' E 001°37'918.3
2017-Jun-16 14:30N 51°05' E 001°25'4 3.7
2017-Jun-16 13:28N 51°07' E 001°20'3 6.4
2017-Jun-16 13:00N 51°06' E 001°25'1019.1
2017-Jun-16 12:30N 51°01' E 001°37'917.7
2017-Jun-16 12:00N 50°58' E 001°51'0 0.8
2017-Jun-16 11:30N 50°58' E 001°51'1 1.6
2017-Jun-16 11:01N 50°58' E 001°50'816.1
2017-Jun-16 10:31N 50°59' E 001°37'918.5
2017-Jun-16 10:00N 51°05' E 001°26'4 8.7
2017-Jun-16 09:30N 51°07' E 001°20'0 0.0
2017-Jun-16 09:00N 51°07' E 001°20'3 5.9
2017-Jun-16 08:30N 51°07' E 001°25'917.8
2017-Jun-16 08:00N 51°02' E 001°37'816.8
2017-Jun-16 07:30N 50°58' E 001°49'2 3.4
2017-Jun-16 07:00N 50°58' E 001°51'0 0.0
2017-Jun-16 06:30N 50°58' E 001°51'2 3.6
2017-Jun-16 06:00N 50°58' E 001°48'816.6
2017-Jun-16 05:30N 51°01' E 001°36'917.9
2017-Jun-16 05:00N 51°06' E 001°24'3 5.6
2017-Jun-16 04:28N 51°07' E 001°20'0 0.0
2017-Jun-16 04:00N 51°07' E 001°20'511.2
2017-Jun-16 03:30N 51°06' E 001°29'918.6
2017-Jun-16 03:00N 51°00' E 001°40'714.3
2017-Jun-16 02:31N 50°58' E 001°51'0 0.3
2017-Jun-16 02:00N 50°58' E 001°51'0 0.0
2017-Jun-16 01:30N 50°58' E 001°51'1 2.5
2017-Jun-16 01:00N 50°58' E 001°49'918.1
2017-Jun-16 00:30N 50°59' E 001°35'816.6
2017-Jun-16 00:00N 51°05' E 001°26'5 9.1
2017-Jun-15 23:30N 51°07' E 001°20'0 0.0
2017-Jun-15 23:00N 51°07' E 001°20'1 1.7
2017-Jun-15 22:30N 51°07' E 001°21'917.9
2017-Jun-15 22:00N 51°04' E 001°35'918.3
2017-Jun-15 21:31N 50°58' E 001°45'4 7.2
2017-Jun-15 21:00N 50°58' E 001°51'0 0.0
2017-Jun-15 20:30N 50°58' E 001°51'4 8.5
2017-Jun-15 20:01N 50°58' E 001°45'918.6
2017-Jun-15 19:30N 51°02' E 001°31'915.9
2017-Jun-15 18:57N 51°07' E 001°20'0 0.0
2017-Jun-15 18:29N 51°07' E 001°20'0 0.7
2017-Jun-15 18:00N 51°07' E 001°21'816.2
2017-Jun-15 17:31N 51°06' E 001°33'1019.0
2017-Jun-15 17:01N 50°59' E 001°44'5 9.9
2017-Jun-15 16:31N 50°58' E 001°51'0 0.0
2017-Jun-15 16:01N 50°58' E 001°51'2 4.6
2017-Jun-15 15:31N 50°58' E 001°48'1019.6
2017-Jun-15 15:00N 51°02' E 001°33'1018.9
2017-Jun-15 14:30N 51°07' E 001°21'0 0.3
2017-Jun-15 13:31N 51°07' E 001°20'713.8
2017-Jun-15 13:00N 51°04' E 001°30'1121.5
2017-Jun-15 12:31N 50°58' E 001°44'4 8.7
2017-Jun-15 12:00N 50°58' E 001°51'0 0.0
2017-Jun-15 11:30N 50°58' E 001°51'1 2.7
2017-Jun-15 11:01N 50°58' E 001°49'918.5
2017-Jun-15 10:30N 51°00' E 001°35'1020.7
2017-Jun-15 10:00N 51°07' E 001°22'1 2.6
2017-Jun-15 09:30N 51°07' E 001°20'0 0.0
2017-Jun-15 09:00N 51°07' E 001°20'3 5.7
2017-Jun-15 08:30N 51°07' E 001°25'917.2
2017-Jun-15 08:00N 51°02' E 001°36'817.0
2017-Jun-15 07:30N 50°58' E 001°48'2 4.3
2017-Jun-15 07:00N 50°58' E 001°51'0 0.0
2017-Jun-15 06:30N 50°58' E 001°51'2 3.0
2017-Jun-15 06:01N 50°58' E 001°49'917.4
2017-Jun-15 05:31N 50°59' E 001°35'918.3
2017-Jun-15 05:01N 51°05' E 001°24'3 6.5
2017-Jun-15 04:31N 51°07' E 001°20'0 0.0
2017-Jun-15 03:56N 51°07' E 001°20'3 6.5
2017-Jun-15 03:31N 51°07' E 001°24'917.4
2017-Jun-15 03:01N 51°03' E 001°36'816.3
2017-Jun-15 02:30N 50°58' E 001°47'2 4.8
2017-Jun-15 02:00N 50°58' E 001°51'0 0.0
2017-Jun-15 01:30N 50°58' E 001°51'0 0.7
2017-Jun-15 01:00N 50°58' E 001°51'917.4
2017-Jun-15 00:31N 51°00' E 001°37'918.8
2017-Jun-15 00:00N 51°05' E 001°25'4 7.2
2017-Jun-14 23:30N 51°07' E 001°20'0 0.0
2017-Jun-14 22:59N 51°07' E 001°20'1 1.3
2017-Jun-14 22:30N 51°07' E 001°21'918.0
2017-Jun-14 22:01N 51°03' E 001°33'1019.3
2017-Jun-14 21:31N 50°58' E 001°47'3 5.4
2017-Jun-14 21:00N 50°58' E 001°51'0 0.0
2017-Jun-14 20:30N 50°58' E 001°51'510.6
2017-Jun-14 20:01N 50°58' E 001°43'918.2
2017-Jun-14 19:30N 51°02' E 001°30'816.2
2017-Jun-14 19:00N 51°07' E 001°20'0 0.1
2017-Jun-14 18:30N 51°07' E 001°20'0 0.2
2017-Jun-14 18:00N 51°07' E 001°20'714.6
2017-Jun-14 17:30N 51°06' E 001°31'1019.3
2017-Jun-14 17:00N 50°59' E 001°43'510.9
2017-Jun-14 16:30N 50°58' E 001°51'0 0.0
2017-Jun-14 16:00N 50°58' E 001°51'2 3.8
2017-Jun-14 15:31N 50°58' E 001°48'1121.3
2017-Jun-14 15:01N 51°02' E 001°32'9 9.3
2017-Jun-14 14:00N 51°07' E 001°20'0 0.2
2017-Jun-14 13:30N 51°07' E 001°20'816.6
2017-Jun-14 13:01N 51°04' E 001°32'1121.1
2017-Jun-14 12:30N 50°58' E 001°46'3 6.8
2017-Jun-14 12:00N 50°58' E 001°51'0 0.0
2017-Jun-14 11:30N 50°58' E 001°51'2 3.6
2017-Jun-14 11:00N 50°58' E 001°48'816.5
2017-Jun-14 10:30N 50°60' E 001°36'918.9
2017-Jun-14 10:00N 51°05' E 001°24'3 6.1
2017-Jun-14 09:30N 51°07' E 001°20'0 0.0
2017-Jun-14 09:00N 51°07' E 001°20'3 5.3
2017-Jun-14 08:30N 51°07' E 001°24'917.6
2017-Jun-14 08:00N 51°02' E 001°36'917.6
2017-Jun-14 07:30N 50°58' E 001°49'2 3.4
2017-Jun-14 07:00N 50°58' E 001°51'0 0.0
2017-Jun-14 06:30N 50°58' E 001°51'2 4.3
2017-Jun-14 06:00N 50°58' E 001°48'917.1
2017-Jun-14 05:30N 50°59' E 001°34'917.7
2017-Jun-14 05:00N 51°05' E 001°24'3 6.8
2017-Jun-14 04:30N 51°07' E 001°20'0 0.0
2017-Jun-14 03:59N 51°07' E 001°20'3 6.3
2017-Jun-14 03:30N 51°07' E 001°25'815.8
2017-Jun-14 03:00N 51°03' E 001°36'816.2
2017-Jun-14 02:31N 50°58' E 001°46'3 6.5
2017-Jun-14 02:00N 50°58' E 001°51'0 0.0
2017-Jun-14 01:31N 50°58' E 001°51'1 3.0
2017-Jun-14 01:00N 50°58' E 001°49'1019.5
2017-Jun-14 00:31N 50°58' E 001°33'918.0
2017-Jun-14 00:00N 51°05' E 001°24'3 6.8
2017-Jun-13 23:30N 51°07' E 001°20'0 0.0
2017-Jun-13 23:00N 51°07' E 001°20'3 6.6
2017-Jun-13 22:30N 51°07' E 001°25'816.5
2017-Jun-13 22:00N 51°02' E 001°36'917.8
2017-Jun-13 21:30N 50°58' E 001°48'2 3.5
2017-Jun-13 21:00N 50°58' E 001°51'0 0.0
2017-Jun-13 20:30N 50°58' E 001°51'  
Track history (hours):
 
Tides and Currents Weather Stations Pressure Air Temp Water Temp Dewpoint Dewpoint Depression Visibility Wind Speed Wind Dir Waves Ship Positions

Seafrance Rodin

Operator: SeaFrance

Last reported at 2017-Jun-23 20:30 UTC. Time now 2017-Jun-23 20:29 UTC.
Position N 50°58' E 001°51'.

Length 185 m; draft 6 m.

MMSI: 227022800.

Date/timePositionNaut miles runAvg speedWind from/ knotsBaromVisibWave heightAir tempDewpointWater temp
2017-Jun-23 20:30N 50°58' E 001°51'4 8.8
2017-Jun-23 20:01N 50°58' E 001°44'815.9
2017-Jun-23 19:31N 51°01' E 001°33'917.3
2017-Jun-23 19:00N 51°07' E 001°22'1 2.7
2017-Jun-23 18:30N 51°07' E 001°20'0 0.4
2017-Jun-23 17:59N 51°07' E 001°20'715.0
2017-Jun-23 17:31N 51°05' E 001°31'918.7
2017-Jun-23 17:01N 50°59' E 001°43'510.9
2017-Jun-23 16:30N 50°58' E 001°51'0 0.0
2017-Jun-23 16:00N 50°58' E 001°51'2 4.1
2017-Jun-23 15:30N 50°58' E 001°48'815.1
2017-Jun-23 15:00N 51°00' E 001°36'1312.6
2017-Jun-23 14:00N 51°07' E 001°20'0 0.0
2017-Jun-23 13:30N 51°07' E 001°20'3 6.8
2017-Jun-23 13:01N 51°07' E 001°25'918.4
2017-Jun-23 12:31N 51°02' E 001°38'816.7
2017-Jun-23 12:00N 50°58' E 001°50'1 1.9
2017-Jun-23 11:30N 50°58' E 001°51'0 0.3
2017-Jun-23 11:00N 50°58' E 001°51'816.2
2017-Jun-23 10:30N 50°60' E 001°38'917.0
2017-Jun-23 10:00N 51°04' E 001°27'510.1
2017-Jun-23 09:29N 51°07' E 001°20'0 0.0
2017-Jun-23 08:58N 51°07' E 001°20'4 8.2
2017-Jun-23 08:30N 51°07' E 001°26'918.2
2017-Jun-23 08:01N 51°02' E 001°39'815.8
2017-Jun-23 07:30N 50°58' E 001°50'1 2.2
2017-Jun-23 07:00N 50°58' E 001°51'0 0.0
2017-Jun-23 06:31N 50°58' E 001°51'4 7.1
2017-Jun-23 06:00N 50°58' E 001°46'815.9
2017-Jun-23 05:30N 51°01' E 001°34'917.3
2017-Jun-23 05:00N 51°06' E 001°23'2 4.6
2017-Jun-23 04:30N 51°07' E 001°20'0 0.0
2017-Jun-23 04:00N 51°07' E 001°20'4 8.2
2017-Jun-23 03:30N 51°06' E 001°26'917.0
2017-Jun-23 03:00N 51°01' E 001°37'815.6
2017-Jun-23 02:30N 50°58' E 001°49'2 3.0
2017-Jun-23 02:00N 50°58' E 001°51'0 0.0
2017-Jun-23 01:30N 50°58' E 001°51'1 2.6
2017-Jun-23 01:01N 50°58' E 001°49'816.4
2017-Jun-23 00:30N 51°00' E 001°37'816.7
2017-Jun-23 00:00N 51°05' E 001°26'4 8.4
2017-Jun-22 23:30N 51°07' E 001°20'0 0.0
2017-Jun-22 23:00N 51°07' E 001°20'4 9.1
2017-Jun-22 22:31N 51°07' E 001°27'917.1
2017-Jun-22 22:00N 51°02' E 001°38'714.6
2017-Jun-22 21:30N 50°58' E 001°48'2 3.5
2017-Jun-22 21:00N 50°58' E 001°51'0 0.0
2017-Jun-22 20:31N 50°58' E 001°51'4 7.4
2017-Jun-22 20:00N 50°58' E 001°45'816.3
2017-Jun-22 19:30N 51°01' E 001°33'816.5
2017-Jun-22 19:00N 51°06' E 001°23'2 4.7
2017-Jun-22 18:30N 51°07' E 001°20'0 0.1
2017-Jun-22 18:00N 51°07' E 001°20'815.2
2017-Jun-22 17:30N 51°04' E 001°31'1019.3
2017-Jun-22 17:00N 50°59' E 001°44'5 9.5
2017-Jun-22 16:30N 50°58' E 001°51'0 0.0
2017-Jun-22 16:00N 50°58' E 001°51'2 4.7
2017-Jun-22 15:30N 50°58' E 001°47'815.8
2017-Jun-22 15:01N 51°01' E 001°36'917.5
2017-Jun-22 14:31N 51°06' E 001°24'3 3.1
2017-Jun-22 13:30N 51°07' E 001°20'4 9.0
2017-Jun-22 13:01N 51°07' E 001°27'1020.0
2017-Jun-22 12:30N 51°01' E 001°40'714.7
2017-Jun-22 12:00N 50°58' E 001°51'0 0.1
2017-Jun-22 11:30N 50°58' E 001°51'1 1.0
2017-Jun-22 11:00N 50°58' E 001°50'918.2
2017-Jun-22 10:30N 50°59' E 001°36'918.4
2017-Jun-22 10:00N 51°05' E 001°25'4 7.6
2017-Jun-22 09:31N 51°07' E 001°20'0 0.0
2017-Jun-22 08:58N 51°07' E 001°20'4 7.9
2017-Jun-22 08:30N 51°06' E 001°26'918.7
2017-Jun-22 08:00N 51°02' E 001°39'815.4
2017-Jun-22 07:30N 50°58' E 001°50'1 1.8
2017-Jun-22 07:00N 50°58' E 001°51'0 0.0
2017-Jun-22 06:30N 50°58' E 001°51'3 6.3
2017-Jun-22 06:00N 50°58' E 001°46'816.0
2017-Jun-22 05:30N 51°01' E 001°35'917.1
2017-Jun-22 05:00N 51°06' E 001°23'3 5.0
2017-Jun-22 04:30N 51°07' E 001°20'0 0.0
2017-Jun-22 04:00N 51°07' E 001°20'4 8.0
2017-Jun-22 03:30N 51°06' E 001°26'816.7
2017-Jun-22 03:01N 51°02' E 001°38'815.4
2017-Jun-22 02:30N 50°58' E 001°48'2 3.5
2017-Jun-22 02:00N 50°58' E 001°51'0 0.0
2017-Jun-22 01:30N 50°58' E 001°51'3 5.6
2017-Jun-22 01:01N 50°58' E 001°47'816.0
2017-Jun-22 00:30N 50°59' E 001°34'815.7
2017-Jun-22 00:00N 51°05' E 001°27'5 9.5
2017-Jun-21 23:30N 51°07' E 001°20'0 0.0
2017-Jun-21 23:00N 51°07' E 001°20'4 7.4
2017-Jun-21 22:30N 51°06' E 001°26'917.2
2017-Jun-21 22:00N 51°02' E 001°37'815.1
2017-Jun-21 21:30N 50°58' E 001°48'2 4.1
2017-Jun-21 21:00N 50°58' E 001°51'0 0.0
2017-Jun-21 20:30N 50°58' E 001°51'510.4
2017-Jun-21 20:00N 50°58' E 001°43'917.0
2017-Jun-21 19:30N 51°02' E 001°31'816.4
2017-Jun-21 19:01N 51°07' E 001°21'1 1.1
2017-Jun-21 18:30N 51°07' E 001°20'0 0.3
2017-Jun-21 18:00N 51°07' E 001°20'917.1
2017-Jun-21 17:31N 51°04' E 001°33'1019.6
2017-Jun-21 17:01N 50°58' E 001°45'4 7.6
2017-Jun-21 16:30N 50°58' E 001°51'0 0.0
2017-Jun-21 16:00N 50°58' E 001°51'2 4.8
2017-Jun-21 15:31N 50°58' E 001°47'816.4
2017-Jun-21 15:00N 51°01' E 001°35'918.2
2017-Jun-21 14:31N 51°06' E 001°23'3 2.5
2017-Jun-21 13:30N 51°07' E 001°20'4 8.6
2017-Jun-21 13:00N 51°06' E 001°27'918.8
2017-Jun-21 12:30N 51°01' E 001°39'816.0
2017-Jun-21 12:00N 50°58' E 001°51'0 0.5
2017-Jun-21 11:30N 50°58' E 001°51'0 0.7
2017-Jun-21 11:01N 50°58' E 001°51'816.3
2017-Jun-21 10:31N 50°59' E 001°38'917.3
2017-Jun-21 10:01N 51°05' E 001°27'510.1
2017-Jun-21 09:30N 51°07' E 001°20'0 0.0
2017-Jun-21 09:00N 51°07' E 001°20'4 7.5
2017-Jun-21 08:31N 51°07' E 001°26'917.3
2017-Jun-21 08:00N 51°02' E 001°37'816.5
2017-Jun-21 07:30N 50°58' E 001°49'2 3.0
2017-Jun-21 07:00N 50°58' E 001°51'0 0.0
2017-Jun-21 06:30N 50°58' E 001°51'4 7.1
2017-Jun-21 06:00N 50°58' E 001°46'917.2
2017-Jun-21 05:31N 51°02' E 001°33'917.3
2017-Jun-21 05:00N 51°07' E 001°22'1 3.0
2017-Jun-21 04:31N 51°07' E 001°20'0 0.0
2017-Jun-21 04:00N 51°07' E 001°20'4 7.4
2017-Jun-21 03:30N 51°06' E 001°25'816.5
2017-Jun-21 03:00N 51°01' E 001°37'815.7
2017-Jun-21 02:30N 50°58' E 001°48'2 4.1
2017-Jun-21 02:00N 50°58' E 001°51'0 0.0
2017-Jun-21 01:30N 50°58' E 001°51'2 3.5
2017-Jun-21 01:00N 50°58' E 001°48'714.0
2017-Jun-21 00:30N 50°59' E 001°37'917.8
2017-Jun-21 00:01N 51°03' E 001°25'510.1
2017-Jun-20 23:30N 51°07' E 001°20'0 0.0
2017-Jun-20 23:00N 51°07' E 001°20'2 4.6
2017-Jun-20 22:31N 51°07' E 001°24'816.7
2017-Jun-20 22:01N 51°03' E 001°35'816.4
2017-Jun-20 21:31N 50°58' E 001°46'3 6.4
2017-Jun-20 21:00N 50°58' E 001°51'0 0.0
2017-Jun-20 20:30N 50°58' E 001°51'5 9.1
2017-Jun-20 20:00N 50°58' E 001°44'917.2
2017-Jun-20 19:31N 51°02' E 001°32'916.6
2017-Jun-20 18:59N 51°07' E 001°21'1 1.0
2017-Jun-20 18:28N 51°07' E 001°20'0 0.2
2017-Jun-20 18:00N 51°07' E 001°20'715.0
2017-Jun-20 17:31N 51°04' E 001°31'1019.3
2017-Jun-20 17:01N 50°59' E 001°44'5 9.6
2017-Jun-20 16:30N 50°58' E 001°51'0 0.0
2017-Jun-20 16:00N 50°58' E 001°51'3 5.2
2017-Jun-20 15:31N 50°58' E 001°47'816.9
2017-Jun-20 15:01N 51°01' E 001°34'918.4
2017-Jun-20 14:31N 51°06' E 001°22'2 1.9
2017-Jun-20 13:30N 51°07' E 001°20'4 7.9
2017-Jun-20 13:00N 51°06' E 001°26'918.0
2017-Jun-20 12:30N 51°01' E 001°38'816.8
2017-Jun-20 12:00N 50°58' E 001°51'0 0.9
2017-Jun-20 11:30N 50°58' E 001°51'0 0.7
2017-Jun-20 11:00N 50°58' E 001°51'917.4
2017-Jun-20 10:30N 50°59' E 001°37'1019.7
2017-Jun-20 10:00N 51°05' E 001°25'4 6.9
2017-Jun-20 09:30N 51°07' E 001°20'0 0.0
2017-Jun-20 09:00N 51°07' E 001°20'4 8.4
2017-Jun-20 08:30N 51°07' E 001°27'918.6
2017-Jun-20 08:00N 51°00' E 001°37'816.2
2017-Jun-20 07:30N 50°58' E 001°50'1 1.5
2017-Jun-20 07:00N 50°58' E 001°51'0 0.0
2017-Jun-20 06:30N 50°58' E 001°51'3 5.1
2017-Jun-20 06:00N 50°58' E 001°47'816.7
2017-Jun-20 05:30N 51°01' E 001°35'816.6
2017-Jun-20 05:01N 51°06' E 001°24'3 5.8
2017-Jun-20 04:30N 51°07' E 001°20'0 0.0
2017-Jun-20 04:00N 51°07' E 001°20'3 5.9
2017-Jun-20 03:30N 51°07' E 001°25'816.6
2017-Jun-20 03:00N 51°03' E 001°36'816.8
2017-Jun-20 02:30N 50°58' E 001°47'2 5.0
2017-Jun-20 02:00N 50°58' E 001°51'0 0.0
2017-Jun-20 01:30N 50°58' E 001°51'2 3.3
2017-Jun-20 01:00N 50°58' E 001°49'714.5
2017-Jun-20 00:31N 51°01' E 001°38'816.5
2017-Jun-20 00:00N 51°05' E 001°26'5 8.9
2017-Jun-19 23:29N 51°07' E 001°20'0 0.0
2017-Jun-19 23:00N 51°07' E 001°20'2 3.3
2017-Jun-19 22:31N 51°07' E 001°23'918.6
2017-Jun-19 22:01N 51°02' E 001°36'917.7
2017-Jun-19 21:31N 50°58' E 001°48'2 4.1
2017-Jun-19 21:00N 50°58' E 001°51'0 0.0
2017-Jun-19 20:30N 50°58' E 001°51'510.6
2017-Jun-19 20:00N 50°58' E 001°43'918.9
2017-Jun-19 19:31N 51°03' E 001°30'815.5
2017-Jun-19 19:00N 51°07' E 001°20'0 0.0
2017-Jun-19 18:30N 51°07' E 001°20'1 1.9
2017-Jun-19 18:00N 51°07' E 001°22'918.4
2017-Jun-19 17:31N 51°03' E 001°34'1020.4
2017-Jun-19 17:01N 50°58' E 001°49'2 3.1
2017-Jun-19 16:30N 50°58' E 001°51'0 0.0
2017-Jun-19 16:00N 50°58' E 001°51'1 1.6
2017-Jun-19 15:31N 50°58' E 001°50'917.6
2017-Jun-19 15:00N 50°60' E 001°36'918.3
2017-Jun-19 14:30N 51°05' E 001°24'4 3.5
2017-Jun-19 13:30N 51°07' E 001°20'5 9.6
2017-Jun-19 13:01N 51°06' E 001°27'1020.0
2017-Jun-19 12:30N 50°60' E 001°40'714.3
2017-Jun-19 12:00N 50°58' E 001°51'0 0.0
2017-Jun-19 11:30N 50°58' E 001°51'0 0.4
2017-Jun-19 11:00N 50°58' E 001°51'815.1
2017-Jun-19 10:31N 50°59' E 001°39'917.9
2017-Jun-19 10:00N 51°04' E 001°27'611.4
2017-Jun-19 09:31N 51°07' E 001°20'0 0.0
2017-Jun-19 09:00N 51°07' E 001°20'3 6.7
2017-Jun-19 08:31N 51°06' E 001°25'918.7
2017-Jun-19 08:01N 51°01' E 001°38'816.2
2017-Jun-19 07:30N 50°58' E 001°50'1 1.9
2017-Jun-19 07:01N 50°58' E 001°51'0 0.0
2017-Jun-19 06:31N 50°58' E 001°51'2 4.9
2017-Jun-19 06:00N 50°58' E 001°47'917.5
2017-Jun-19 05:30N 50°59' E 001°34'816.1
2017-Jun-19 05:00N 51°05' E 001°24'4 7.2
2017-Jun-19 04:30N 51°07' E 001°20'0 0.0
2017-Jun-19 04:00N 51°07' E 001°20'3 7.0
2017-Jun-19 03:30N 51°06' E 001°25'816.9
2017-Jun-19 03:00N 51°02' E 001°37'816.5
2017-Jun-19 02:30N 50°58' E 001°49'2 3.3
2017-Jun-19 02:00N 50°58' E 001°51'0 0.0
2017-Jun-19 01:30N 50°58' E 001°51'4 8.3
2017-Jun-19 01:00N 50°58' E 001°45'815.4
2017-Jun-19 00:30N 50°57' E 001°32'816.4
2017-Jun-19 00:00N 51°05' E 001°26'5 9.2
2017-Jun-18 23:30N 51°07' E 001°20'0 0.0
2017-Jun-18 23:00N 51°07' E 001°20'1 2.5
2017-Jun-18 22:30N 51°07' E 001°22'816.7
2017-Jun-18 22:01N 51°03' E 001°34'917.0
2017-Jun-18 21:30N 50°58' E 001°45'4 8.2
2017-Jun-18 21:00N 50°58' E 001°51'0 0.0
2017-Jun-18 20:30N 50°58' E 001°51'3 6.2
2017-Jun-18 20:00N 50°58' E 001°46'917.2
2017-Jun-18 19:30N 51°01' E 001°34'917.7
2017-Jun-18 19:00N 51°06' E 001°22'2 3.5
2017-Jun-18 18:30N 51°07' E 001°20'0 0.4
2017-Jun-18 17:59N 51°07' E 001°20'715.0
2017-Jun-18 17:31N 51°05' E 001°31'816.8
2017-Jun-18 17:00N 50°60' E 001°42'612.3
2017-Jun-18 16:30N 50°58' E 001°51'0 0.0
2017-Jun-18 16:01N 50°58' E 001°51'1 1.2
2017-Jun-18 15:30N 50°58' E 001°50'714.7
2017-Jun-18 15:01N 50°60' E 001°39'1414.1
2017-Jun-18 14:00N 51°07' E 001°20'0 0.0
2017-Jun-18 13:30N 51°07' E 001°20'5 9.2
2017-Jun-18 13:00N 51°06' E 001°27'1019.8
2017-Jun-18 12:30N 51°00' E 001°40'714.3
2017-Jun-18 12:00N 50°58' E 001°51'0 0.1
2017-Jun-18 11:31N 50°58' E 001°51'0 0.0
2017-Jun-18 11:00N 50°58' E 001°51'0 0.0
2017-Jun-18 10:30N 50°58' E 001°51'0 0.0
2017-Jun-18 10:00N 50°58' E 001°51'0 0.0
2017-Jun-18 09:30N 50°58' E 001°51'0 0.2
2017-Jun-18 09:01N 50°58' E 001°51'0 0.0
2017-Jun-18 08:31N 50°58' E 001°51'0 0.0
2017-Jun-18 08:01N 50°58' E 001°51'0 0.0
2017-Jun-18 07:31N 50°58' E 001°51'0 0.0
2017-Jun-18 07:01N 50°58' E 001°51'0 0.0
2017-Jun-18 06:31N 50°58' E 001°51'0 0.0
2017-Jun-18 06:00N 50°58' E 001°51'0 0.2
2017-Jun-18 05:31N 50°58' E 001°51'0 0.0
2017-Jun-18 05:01N 50°58' E 001°51'0 0.0
2017-Jun-18 04:31N 50°58' E 001°51'0 0.0
2017-Jun-18 04:01N 50°58' E 001°51'0 0.0
2017-Jun-18 03:30N 50°58' E 001°51'0 0.0
2017-Jun-18 03:01N 50°58' E 001°51'0 0.0
2017-Jun-18 02:31N 50°58' E 001°51'0 0.0
2017-Jun-18 02:00N 50°58' E 001°51'0 0.0
2017-Jun-18 01:31N 50°58' E 001°51'2 4.3
2017-Jun-18 01:01N 50°58' E 001°48'816.7
2017-Jun-18 00:31N 51°00' E 001°35'918.3
2017-Jun-18 00:01N 51°06' E 001°23'2 3.6
2017-Jun-17 23:21N 51°08' E 001°20'0 0.0
2017-Jun-17 23:00N 51°08' E 001°20'1 2.2
2017-Jun-17 22:30N 51°07' E 001°22'917.1
2017-Jun-17 22:01N 51°03' E 001°34'917.7
2017-Jun-17 21:30N 50°58' E 001°45'3 7.0
2017-Jun-17 21:00N 50°58' E 001°51'0 0.0
2017-Jun-17 20:30N 50°58' E 001°51'3 6.0
2017-Jun-17 20:00N 50°58' E 001°46'816.6
2017-Jun-17 19:30N 51°01' E 001°34'917.5
2017-Jun-17 19:00N 51°06' E 001°23'2 4.2
2017-Jun-17 18:31N 51°07' E 001°20'0 0.3
2017-Jun-17 17:58N 51°07' E 001°20'816.4
2017-Jun-17 17:31N 51°05' E 001°32'917.9
2017-Jun-17 17:00N 50°59' E 001°43'510.5
2017-Jun-17 16:30N 50°58' E 001°51'0 0.0
2017-Jun-17 16:00N 50°58' E 001°51'2 3.6
2017-Jun-17 15:31N 50°58' E 001°48'815.9
2017-Jun-17 15:01N 51°01' E 001°36'816.6
2017-Jun-17 14:31N 51°05' E 001°26'4 4.0
2017-Jun-17 13:31N 51°07' E 001°20'5 9.0
2017-Jun-17 13:01N 51°06' E 001°27'1717.1
2017-Jun-17 12:01N 50°58' E 001°51'0 0.1
2017-Jun-17 11:30N 50°58' E 001°51'1 2.6
2017-Jun-17 11:00N 50°58' E 001°49'917.0
2017-Jun-17 10:30N 51°00' E 001°36'1019.2
2017-Jun-17 10:00N 51°06' E 001°24'3 5.5
2017-Jun-17 09:30N 51°07' E 001°20'0 0.0
2017-Jun-17 09:00N 51°07' E 001°20'4 7.6
2017-Jun-17 08:31N 51°06' E 001°26'917.8
2017-Jun-17 08:01N 51°02' E 001°38'816.2
2017-Jun-17 07:31N 50°58' E 001°50'1 1.9
2017-Jun-17 07:01N 50°58' E 001°51'0 0.0
2017-Jun-17 06:30N 50°58' E 001°51'1 2.7
2017-Jun-17 06:01N 50°58' E 001°49'816.7
2017-Jun-17 05:30N 51°00' E 001°36'917.3
2017-Jun-17 05:00N 51°05' E 001°25'4 7.0
2017-Jun-17 04:29N 51°07' E 001°20'0 0.0
2017-Jun-17 04:00N 51°07' E 001°20'3 6.6
2017-Jun-17 03:30N 51°07' E 001°25'816.4
2017-Jun-17 03:00N 51°02' E 001°36'816.0
2017-Jun-17 02:30N 50°58' E 001°47'2 5.0
2017-Jun-17 02:01N 50°58' E 001°51'0 0.0
2017-Jun-17 01:30N 50°58' E 001°51'2 4.4
2017-Jun-17 01:00N 50°58' E 001°48'917.5
2017-Jun-17 00:30N 51°01' E 001°34'918.5
2017-Jun-17 00:00N 51°07' E 001°23'2 3.9
2017-Jun-16 23:30N 51°07' E 001°20'0 0.0
2017-Jun-16 23:00N 51°07' E 001°20'2 3.0
2017-Jun-16 22:31N 51°07' E 001°23'917.4
2017-Jun-16 22:01N 51°05' E 001°36'815.7
2017-Jun-16 21:31N 50°59' E 001°44'5 9.4
2017-Jun-16 21:00N 50°58' E 001°51'0 0.0
2017-Jun-16 20:30N 50°58' E 001°51'4 8.6
2017-Jun-16 20:01N 50°58' E 001°44'918.7
2017-Jun-16 19:30N 51°02' E 001°31'916.2
2017-Jun-16 18:58N 51°07' E 001°20'0 0.1
2017-Jun-16 18:30N 51°07' E 001°20'0 0.0
2017-Jun-16 18:00N 51°07' E 001°20'5 9.9
2017-Jun-16 17:31N 51°06' E 001°28'917.8
2017-Jun-16 17:00N 51°01' E 001°40'815.3
2017-Jun-16 16:30N 50°58' E 001°51'0 0.5
2017-Jun-16 16:00N 50°58' E 001°51'1 1.9
2017-Jun-16 15:30N 50°58' E 001°50'816.5
2017-Jun-16 15:00N 50°60' E 001°37'918.3
2017-Jun-16 14:30N 51°05' E 001°25'4 3.7
2017-Jun-16 13:28N 51°07' E 001°20'3 6.4
2017-Jun-16 13:00N 51°06' E 001°25'1019.1
2017-Jun-16 12:30N 51°01' E 001°37'917.7
2017-Jun-16 12:00N 50°58' E 001°51'0 0.8
2017-Jun-16 11:30N 50°58' E 001°51'1 1.6
2017-Jun-16 11:01N 50°58' E 001°50'816.1
2017-Jun-16 10:31N 50°59' E 001°37'918.5
2017-Jun-16 10:00N 51°05' E 001°26'4 8.7
2017-Jun-16 09:30N 51°07' E 001°20'0 0.0
2017-Jun-16 09:00N 51°07' E 001°20'3 5.9
2017-Jun-16 08:30N 51°07' E 001°25'917.8
2017-Jun-16 08:00N 51°02' E 001°37'816.8
2017-Jun-16 07:30N 50°58' E 001°49'2 3.4
2017-Jun-16 07:00N 50°58' E 001°51'0 0.0
2017-Jun-16 06:30N 50°58' E 001°51'2 3.6
2017-Jun-16 06:00N 50°58' E 001°48'816.6
2017-Jun-16 05:30N 51°01' E 001°36'917.9
2017-Jun-16 05:00N 51°06' E 001°24'3 5.6
2017-Jun-16 04:28N 51°07' E 001°20'0 0.0
2017-Jun-16 04:00N 51°07' E 001°20'511.2
2017-Jun-16 03:30N 51°06' E 001°29'918.6
2017-Jun-16 03:00N 51°00' E 001°40'714.3
2017-Jun-16 02:31N 50°58' E 001°51'0 0.3
2017-Jun-16 02:00N 50°58' E 001°51'0 0.0
2017-Jun-16 01:30N 50°58' E 001°51'1 2.5
2017-Jun-16 01:00N 50°58' E 001°49'918.1
2017-Jun-16 00:30N 50°59' E 001°35'816.6
2017-Jun-16 00:00N 51°05' E 001°26'5 9.1
2017-Jun-15 23:30N 51°07' E 001°20'0 0.0
2017-Jun-15 23:00N 51°07' E 001°20'1 1.7
2017-Jun-15 22:30N 51°07' E 001°21'917.9
2017-Jun-15 22:00N 51°04' E 001°35'918.3
2017-Jun-15 21:31N 50°58' E 001°45'4 7.2
2017-Jun-15 21:00N 50°58' E 001°51'0 0.0
2017-Jun-15 20:30N 50°58' E 001°51'4 8.5
2017-Jun-15 20:01N 50°58' E 001°45'918.6
2017-Jun-15 19:30N 51°02' E 001°31'915.9
2017-Jun-15 18:57N 51°07' E 001°20'0 0.0
2017-Jun-15 18:29N 51°07' E 001°20'0 0.7
2017-Jun-15 18:00N 51°07' E 001°21'816.2
2017-Jun-15 17:31N 51°06' E 001°33'1019.0
2017-Jun-15 17:01N 50°59' E 001°44'5 9.9
2017-Jun-15 16:31N 50°58' E 001°51'0 0.0
2017-Jun-15 16:01N 50°58' E 001°51'2 4.6
2017-Jun-15 15:31N 50°58' E 001°48'1019.6
2017-Jun-15 15:00N 51°02' E 001°33'1018.9
2017-Jun-15 14:30N 51°07' E 001°21'0 0.3
2017-Jun-15 13:31N 51°07' E 001°20'713.8
2017-Jun-15 13:00N 51°04' E 001°30'1121.5
2017-Jun-15 12:31N 50°58' E 001°44'4 8.7
2017-Jun-15 12:00N 50°58' E 001°51'0 0.0
2017-Jun-15 11:30N 50°58' E 001°51'1 2.7
2017-Jun-15 11:01N 50°58' E 001°49'918.5
2017-Jun-15 10:30N 51°00' E 001°35'1020.7
2017-Jun-15 10:00N 51°07' E 001°22'1 2.6
2017-Jun-15 09:30N 51°07' E 001°20'0 0.0
2017-Jun-15 09:00N 51°07' E 001°20'3 5.7
2017-Jun-15 08:30N 51°07' E 001°25'917.2
2017-Jun-15 08:00N 51°02' E 001°36'817.0
2017-Jun-15 07:30N 50°58' E 001°48'2 4.3
2017-Jun-15 07:00N 50°58' E 001°51'0 0.0
2017-Jun-15 06:30N 50°58' E 001°51'2 3.0
2017-Jun-15 06:01N 50°58' E 001°49'917.4
2017-Jun-15 05:31N 50°59' E 001°35'918.3
2017-Jun-15 05:01N 51°05' E 001°24'3 6.5
2017-Jun-15 04:31N 51°07' E 001°20'0 0.0
2017-Jun-15 03:56N 51°07' E 001°20'3 6.5
2017-Jun-15 03:31N 51°07' E 001°24'917.4
2017-Jun-15 03:01N 51°03' E 001°36'816.3
2017-Jun-15 02:30N 50°58' E 001°47'2 4.8
2017-Jun-15 02:00N 50°58' E 001°51'0 0.0
2017-Jun-15 01:30N 50°58' E 001°51'0 0.7
2017-Jun-15 01:00N 50°58' E 001°51'917.4
2017-Jun-15 00:31N 51°00' E 001°37'918.8
2017-Jun-15 00:00N 51°05' E 001°25'4 7.2
2017-Jun-14 23:30N 51°07' E 001°20'0 0.0
2017-Jun-14 22:59N 51°07' E 001°20'1 1.3
2017-Jun-14 22:30N 51°07' E 001°21'918.0
2017-Jun-14 22:01N 51°03' E 001°33'1019.3
2017-Jun-14 21:31N 50°58' E 001°47'3 5.4
2017-Jun-14 21:00N 50°58' E 001°51'0 0.0
2017-Jun-14 20:30N 50°58' E 001°51'510.6
2017-Jun-14 20:01N 50°58' E 001°43'918.2
2017-Jun-14 19:30N 51°02' E 001°30'816.2
2017-Jun-14 19:00N 51°07' E 001°20'0 0.1
2017-Jun-14 18:30N 51°07' E 001°20'0 0.2
2017-Jun-14 18:00N 51°07' E 001°20'714.6
2017-Jun-14 17:30N 51°06' E 001°31'1019.3
2017-Jun-14 17:00N 50°59' E 001°43'510.9
2017-Jun-14 16:30N 50°58' E 001°51'0 0.0
2017-Jun-14 16:00N 50°58' E 001°51'2 3.8
2017-Jun-14 15:31N 50°58' E 001°48'1121.3
2017-Jun-14 15:01N 51°02' E 001°32'9 9.3
2017-Jun-14 14:00N 51°07' E 001°20'0 0.2
2017-Jun-14 13:30N 51°07' E 001°20'816.6
2017-Jun-14 13:01N 51°04' E 001°32'1121.1
2017-Jun-14 12:30N 50°58' E 001°46'3 6.8
2017-Jun-14 12:00N 50°58' E 001°51'0 0.0
2017-Jun-14 11:30N 50°58' E 001°51'2 3.6
2017-Jun-14 11:00N 50°58' E 001°48'816.5
2017-Jun-14 10:30N 50°60' E 001°36'918.9
2017-Jun-14 10:00N 51°05' E 001°24'3 6.1
2017-Jun-14 09:30N 51°07' E 001°20'0 0.0
2017-Jun-14 09:00N 51°07' E 001°20'3 5.3
2017-Jun-14 08:30N 51°07' E 001°24'917.6
2017-Jun-14 08:00N 51°02' E 001°36'917.6
2017-Jun-14 07:30N 50°58' E 001°49'2 3.4
2017-Jun-14 07:00N 50°58' E 001°51'0 0.0
2017-Jun-14 06:30N 50°58' E 001°51'2 4.3
2017-Jun-14 06:00N 50°58' E 001°48'917.1
2017-Jun-14 05:30N 50°59' E 001°34'917.7
2017-Jun-14 05:00N 51°05' E 001°24'3 6.8
2017-Jun-14 04:30N 51°07' E 001°20'0 0.0
2017-Jun-14 03:59N 51°07' E 001°20'3 6.3
2017-Jun-14 03:30N 51°07' E 001°25'815.8
2017-Jun-14 03:00N 51°03' E 001°36'816.2
2017-Jun-14 02:31N 50°58' E 001°46'3 6.5
2017-Jun-14 02:00N 50°58' E 001°51'0 0.0
2017-Jun-14 01:31N 50°58' E 001°51'1 3.0
2017-Jun-14 01:00N 50°58' E 001°49'1019.5
2017-Jun-14 00:31N 50°58' E 001°33'918.0
2017-Jun-14 00:00N 51°05' E 001°24'3 6.8
2017-Jun-13 23:30N 51°07' E 001°20'0 0.0
2017-Jun-13 23:00N 51°07' E 001°20'3 6.6
2017-Jun-13 22:30N 51°07' E 001°25'816.5
2017-Jun-13 22:00N 51°02' E 001°36'917.8
2017-Jun-13 21:30N 50°58' E 001°48'2 3.5
2017-Jun-13 21:00N 50°58' E 001°51'0 0.0
2017-Jun-13 20:30N 50°58' E 001°51'  

Dump ship's entire track history